sensor_id;sensor_type;location;lat;lon;timestamp;pressure;altitude;pressure_sealevel;temperature;humidity
59831;BME280;45711;50.108;13.712;2022-09-13T00:02:15;97672.41;;;10.94;80.80
59831;BME280;45711;50.108;13.712;2022-09-13T00:04:41;97665.16;;;10.95;80.80
59831;BME280;45711;50.108;13.712;2022-09-13T00:07:06;97670.81;;;10.93;81.29
59831;BME280;45711;50.108;13.712;2022-09-13T00:09:32;97666.50;;;10.92;80.12
59831;BME280;45711;50.108;13.712;2022-09-13T00:11:57;97660.28;;;10.78;81.50
59831;BME280;45711;50.108;13.712;2022-09-13T00:14:24;97653.25;;;10.82;81.04
59831;BME280;45711;50.108;13.712;2022-09-13T00:16:50;97650.28;;;10.83;81.26
59831;BME280;45711;50.108;13.712;2022-09-13T00:19:16;97645.97;;;10.88;80.71
59831;BME280;45711;50.108;13.712;2022-09-13T00:21:42;97650.44;;;10.92;80.79
59831;BME280;45711;50.108;13.712;2022-09-13T00:24:07;97644.56;;;10.71;81.77
59831;BME280;45711;50.108;13.712;2022-09-13T00:26:33;97643.47;;;10.72;81.85
59831;BME280;45711;50.108;13.712;2022-09-13T00:28:59;97638.13;;;10.72;80.56
59831;BME280;45711;50.108;13.712;2022-09-13T00:31:27;97634.19;;;10.65;80.80
59831;BME280;45711;50.108;13.712;2022-09-13T00:33:53;97631.81;;;10.63;81.88
59831;BME280;45711;50.108;13.712;2022-09-13T00:36:19;97625.50;;;10.97;80.33
59831;BME280;45711;50.108;13.712;2022-09-13T00:38:45;97626.50;;;11.01;80.45
59831;BME280;45711;50.108;13.712;2022-09-13T00:41:13;97633.28;;;10.74;80.42
59831;BME280;45711;50.108;13.712;2022-09-13T00:43:49;97621.84;;;10.69;81.50
59831;BME280;45711;50.108;13.712;2022-09-13T00:46:20;97612.94;;;10.73;81.18
59831;BME280;45711;50.108;13.712;2022-09-13T00:48:50;97607.56;;;10.97;79.68
59831;BME280;45711;50.108;13.712;2022-09-13T00:51:17;97612.56;;;10.61;80.73
59831;BME280;45711;50.108;13.712;2022-09-13T00:53:45;97611.28;;;10.53;82.01
59831;BME280;45711;50.108;13.712;2022-09-13T00:56:18;97615.84;;;10.53;81.47
59831;BME280;45711;50.108;13.712;2022-09-13T00:58:49;97624.00;;;10.43;81.19
59831;BME280;45711;50.108;13.712;2022-09-13T01:01:16;97621.38;;;10.62;80.62
59831;BME280;45711;50.108;13.712;2022-09-13T01:03:44;97618.13;;;10.65;81.21
59831;BME280;45711;50.108;13.712;2022-09-13T01:06:17;97608.97;;;10.47;80.77
59831;BME280;45711;50.108;13.712;2022-09-13T01:08:48;97614.53;;;10.26;81.27
59831;BME280;45711;50.108;13.712;2022-09-13T01:11:19;97611.88;;;10.21;81.96
59831;BME280;45711;50.108;13.712;2022-09-13T01:13:50;97610.53;;;10.24;81.53
59831;BME280;45711;50.108;13.712;2022-09-13T01:16:16;97612.09;;;10.30;82.01
59831;BME280;45711;50.108;13.712;2022-09-13T01:18:42;97596.47;;;10.42;80.61
59831;BME280;45711;50.108;13.712;2022-09-13T01:24:36;97598.16;;;10.33;80.54
59831;BME280;45711;50.108;13.712;2022-09-13T01:27:26;97594.31;;;10.15;81.02
59831;BME280;45711;50.108;13.712;2022-09-13T01:30:04;97598.88;;;10.15;80.75
59831;BME280;45711;50.108;13.712;2022-09-13T01:32:35;97592.53;;;10.05;81.98
59831;BME280;45711;50.108;13.712;2022-09-13T01:35:12;97592.75;;;10.38;80.49
59831;BME280;45711;50.108;13.712;2022-09-13T01:37:49;97586.56;;;10.14;81.20
59831;BME280;45711;50.108;13.712;2022-09-13T01:40:27;97581.09;;;10.00;81.95
59831;BME280;45711;50.108;13.712;2022-09-13T01:43:06;97580.34;;;9.94;81.37
59831;BME280;45711;50.108;13.712;2022-09-13T01:45:43;97585.81;;;9.79;81.95
59831;BME280;45711;50.108;13.712;2022-09-13T01:48:16;97587.16;;;9.81;81.60
59831;BME280;45711;50.108;13.712;2022-09-13T01:50:47;97590.13;;;9.75;82.25
59831;BME280;45711;50.108;13.712;2022-09-13T01:53:21;97584.06;;;9.98;80.91
59831;BME280;45711;50.108;13.712;2022-09-13T01:55:51;97584.06;;;9.98;81.08
59831;BME280;45711;50.108;13.712;2022-09-13T01:58:23;97581.56;;;10.36;79.66
59831;BME280;45711;50.108;13.712;2022-09-13T02:00:58;97573.72;;;9.87;81.69
59831;BME280;45711;50.108;13.712;2022-09-13T02:03:30;97573.09;;;10.24;79.89
59831;BME280;45711;50.108;13.712;2022-09-13T02:06:01;97577.41;;;10.20;78.62
59831;BME280;45711;50.108;13.712;2022-09-13T02:08:34;97572.25;;;9.70;80.74
59831;BME280;45711;50.108;13.712;2022-09-13T02:11:07;97571.94;;;9.77;81.08
59831;BME280;45711;50.108;13.712;2022-09-13T02:13:36;97571.56;;;9.60;81.30
59831;BME280;45711;50.108;13.712;2022-09-13T02:16:08;97572.38;;;9.60;82.16
59831;BME280;45711;50.108;13.712;2022-09-13T02:18:38;97568.38;;;9.57;81.59
59831;BME280;45711;50.108;13.712;2022-09-13T02:21:08;97561.38;;;9.67;81.24
59831;BME280;45711;50.108;13.712;2022-09-13T02:23:38;97565.94;;;9.61;81.49
59831;BME280;45711;50.108;13.712;2022-09-13T02:26:06;97554.25;;;9.52;81.55
59831;BME280;45711;50.108;13.712;2022-09-13T02:28:36;97556.69;;;9.48;82.41
59831;BME280;45711;50.108;13.712;2022-09-13T02:31:07;97562.31;;;9.47;82.08
59831;BME280;45711;50.108;13.712;2022-09-13T02:33:36;97559.91;;;9.50;81.48
59831;BME280;45711;50.108;13.712;2022-09-13T02:36:05;97561.19;;;9.53;82.10
59831;BME280;45711;50.108;13.712;2022-09-13T02:38:36;97554.63;;;9.40;81.01
59831;BME280;45711;50.108;13.712;2022-09-13T02:41:06;97553.06;;;9.34;82.33
59831;BME280;45711;50.108;13.712;2022-09-13T02:43:38;97557.06;;;9.37;82.50
59831;BME280;45711;50.108;13.712;2022-09-13T02:46:19;97559.16;;;9.45;81.60
59831;BME280;45711;50.108;13.712;2022-09-13T02:48:51;97558.09;;;9.41;81.67
59831;BME280;45711;50.108;13.712;2022-09-13T02:51:24;97550.19;;;9.25;82.62
59831;BME280;45711;50.108;13.712;2022-09-13T02:54:00;97552.31;;;9.28;81.95
59831;BME280;45711;50.108;13.712;2022-09-13T02:56:40;97556.63;;;9.24;81.71
59831;BME280;45711;50.108;13.712;2022-09-13T02:59:13;97559.03;;;9.21;82.33
59831;BME280;45711;50.108;13.712;2022-09-13T03:01:45;97557.38;;;9.30;81.94
59831;BME280;45711;50.108;13.712;2022-09-13T03:04:13;97553.41;;;9.27;82.73
59831;BME280;45711;50.108;13.712;2022-09-13T03:06:39;97552.91;;;9.20;81.99
59831;BME280;45711;50.108;13.712;2022-09-13T03:09:06;97554.53;;;9.16;82.28
59831;BME280;45711;50.108;13.712;2022-09-13T03:11:45;97554.19;;;9.28;81.94
59831;BME280;45711;50.108;13.712;2022-09-13T03:14:30;97546.19;;;9.23;82.36
59831;BME280;45711;50.108;13.712;2022-09-13T03:17:10;97558.25;;;9.20;82.08
59831;BME280;45711;50.108;13.712;2022-09-13T03:19:47;97554.50;;;9.21;82.14
59831;BME280;45711;50.108;13.712;2022-09-13T03:22:33;97555.38;;;9.12;83.04
59831;BME280;45711;50.108;13.712;2022-09-13T03:25:07;97567.72;;;9.02;82.84
59831;BME280;45711;50.108;13.712;2022-09-13T03:27:40;97553.78;;;9.11;82.29
59831;BME280;45711;50.108;13.712;2022-09-13T03:30:11;97546.59;;;9.06;82.89
59831;BME280;45711;50.108;13.712;2022-09-13T03:32:46;97544.72;;;9.06;82.75
59831;BME280;45711;50.108;13.712;2022-09-13T03:35:17;97553.53;;;9.07;82.34
59831;BME280;45711;50.108;13.712;2022-09-13T03:37:53;97550.63;;;9.03;82.58
59831;BME280;45711;50.108;13.712;2022-09-13T03:40:24;97542.06;;;9.06;82.36
59831;BME280;45711;50.108;13.712;2022-09-13T03:42:57;97540.47;;;9.00;82.32
59831;BME280;45711;50.108;13.712;2022-09-13T03:45:27;97545.72;;;9.16;81.41
59831;BME280;45711;50.108;13.712;2022-09-13T03:47:57;97547.31;;;9.17;82.27
59831;BME280;45711;50.108;13.712;2022-09-13T03:50:24;97550.28;;;9.15;82.17
59831;BME280;45711;50.108;13.712;2022-09-13T03:52:54;97557.50;;;9.10;82.47
59831;BME280;45711;50.108;13.712;2022-09-13T03:55:23;97551.44;;;8.99;82.24
59831;BME280;45711;50.108;13.712;2022-09-13T03:57:50;97549.28;;;9.01;82.27
59831;BME280;45711;50.108;13.712;2022-09-13T04:00:16;97548.75;;;9.04;82.05
59831;BME280;45711;50.108;13.712;2022-09-13T04:02:42;97539.44;;;8.96;83.09
59831;BME280;45711;50.108;13.712;2022-09-13T04:05:09;97538.38;;;8.97;82.84
59831;BME280;45711;50.108;13.712;2022-09-13T04:07:36;97520.34;;;9.18;81.58
59831;BME280;45711;50.108;13.712;2022-09-13T04:10:02;97521.63;;;9.26;81.12
59831;BME280;45711;50.108;13.712;2022-09-13T04:12:28;97516.66;;;9.09;82.28
59831;BME280;45711;50.108;13.712;2022-09-13T04:14:55;97516.44;;;9.05;82.25
59831;BME280;45711;50.108;13.712;2022-09-13T04:17:21;97516.44;;;9.05;82.61
59831;BME280;45711;50.108;13.712;2022-09-13T04:19:47;97507.63;;;9.05;82.90
59831;BME280;45711;50.108;13.712;2022-09-13T04:22:14;97512.19;;;8.99;82.91
59831;BME280;45711;50.108;13.712;2022-09-13T04:24:40;97515.16;;;8.98;82.72
59831;BME280;45711;50.108;13.712;2022-09-13T04:27:07;97516.25;;;8.97;82.73
59831;BME280;45711;50.108;13.712;2022-09-13T04:29:33;97518.91;;;8.97;82.96
59831;BME280;45711;50.108;13.712;2022-09-13T04:31:58;97505.94;;;8.80;83.83
59831;BME280;45711;50.108;13.712;2022-09-13T04:34:27;97511.75;;;8.87;83.10
59831;BME280;45711;50.108;13.712;2022-09-13T04:36:53;97509.31;;;8.91;83.42
59831;BME280;45711;50.108;13.712;2022-09-13T04:39:20;97511.78;;;9.21;82.25
59831;BME280;45711;50.108;13.712;2022-09-13T04:41:47;97510.97;;;9.21;81.88
59831;BME280;45711;50.108;13.712;2022-09-13T04:44:14;97512.28;;;9.28;81.79
59831;BME280;45711;50.108;13.712;2022-09-13T04:46:40;97509.41;;;9.20;82.57
59831;BME280;45711;50.108;13.712;2022-09-13T04:49:06;97510.28;;;9.10;83.00
59831;BME280;45711;50.108;13.712;2022-09-13T04:51:31;97505.13;;;9.19;81.92
59831;BME280;45711;50.108;13.712;2022-09-13T04:53:57;97501.00;;;9.37;81.73
59831;BME280;45711;50.108;13.712;2022-09-13T04:56:25;97517.16;;;9.50;81.37
59831;BME280;45711;50.108;13.712;2022-09-13T04:58:52;97520.94;;;9.44;82.41
59831;BME280;45711;50.108;13.712;2022-09-13T05:01:18;97526.47;;;9.82;80.85
59831;BME280;45711;50.108;13.712;2022-09-13T05:03:43;97520.56;;;9.56;81.93
59831;BME280;45711;50.108;13.712;2022-09-13T05:06:11;97523.72;;;9.63;81.87
59831;BME280;45711;50.108;13.712;2022-09-13T05:08:37;97532.44;;;9.45;82.69
59831;BME280;45711;50.108;13.712;2022-09-13T05:11:03;97534.03;;;9.46;82.02
59831;BME280;45711;50.108;13.712;2022-09-13T05:13:33;97536.38;;;9.81;81.32
59831;BME280;45711;50.108;13.712;2022-09-13T05:16:01;97535.09;;;10.03;80.11
59831;BME280;45711;50.108;13.712;2022-09-13T05:18:27;97543.09;;;10.03;79.53
59831;BME280;45711;50.108;13.712;2022-09-13T05:20:54;97545.84;;;10.22;79.31
59831;BME280;45711;50.108;13.712;2022-09-13T05:23:20;97545.78;;;10.32;78.52
59831;BME280;45711;50.108;13.712;2022-09-13T05:25:51;97547.78;;;10.16;78.83
59831;BME280;45711;50.108;13.712;2022-09-13T05:28:17;97547.13;;;10.29;78.78
59831;BME280;45711;50.108;13.712;2022-09-13T05:30:44;97549.59;;;10.21;79.23
59831;BME280;45711;50.108;13.712;2022-09-13T05:33:09;97540.53;;;10.65;77.62
59831;BME280;45711;50.108;13.712;2022-09-13T05:35:39;97543.66;;;10.72;77.95
59831;BME280;45711;50.108;13.712;2022-09-13T05:38:04;97548.00;;;10.68;77.75
59831;BME280;45711;50.108;13.712;2022-09-13T05:40:30;97547.22;;;11.05;76.33
59831;BME280;45711;50.108;13.712;2022-09-13T05:42:56;97542.16;;;11.03;77.13
59831;BME280;45711;50.108;13.712;2022-09-13T05:45:21;97543.16;;;11.07;77.36
59831;BME280;45711;50.108;13.712;2022-09-13T05:47:50;97542.34;;;11.26;76.63
59831;BME280;45711;50.108;13.712;2022-09-13T05:50:16;97544.31;;;11.53;76.72
59831;BME280;45711;50.108;13.712;2022-09-13T05:52:42;97528.22;;;11.39;78.15
59831;BME280;45711;50.108;13.712;2022-09-13T05:55:08;97522.09;;;11.52;76.64
59831;BME280;45711;50.108;13.712;2022-09-13T05:57:35;97519.28;;;11.44;78.50
59831;BME280;45711;50.108;13.712;2022-09-13T06:00:01;97519.06;;;11.73;76.65
59831;BME280;45711;50.108;13.712;2022-09-13T06:02:26;97518.75;;;12.21;75.40
59831;BME280;45711;50.108;13.712;2022-09-13T06:04:53;97513.88;;;12.09;76.13
59831;BME280;45711;50.108;13.712;2022-09-13T06:07:19;97513.56;;;12.52;74.50
59831;BME280;45711;50.108;13.712;2022-09-13T06:09:44;97508.19;;;13.69;71.15
59831;BME280;45711;50.108;13.712;2022-09-13T06:12:10;97508.59;;;14.25;69.46
59831;BME280;45711;50.108;13.712;2022-09-13T06:14:35;97507.75;;;14.55;68.28
59831;BME280;45711;50.108;13.712;2022-09-13T06:17:01;97512.06;;;14.65;68.50
59831;BME280;45711;50.108;13.712;2022-09-13T06:19:26;97500.69;;;14.77;68.48
59831;BME280;45711;50.108;13.712;2022-09-13T06:21:53;97498.56;;;14.56;69.38
59831;BME280;45711;50.108;13.712;2022-09-13T06:24:19;97506.84;;;15.29;68.33
59831;BME280;45711;50.108;13.712;2022-09-13T06:26:44;97508.72;;;15.72;66.04
59831;BME280;45711;50.108;13.712;2022-09-13T06:29:10;97504.47;;;15.37;67.54
59831;BME280;45711;50.108;13.712;2022-09-13T06:31:37;97507.78;;;15.51;67.62
59831;BME280;45711;50.108;13.712;2022-09-13T06:34:04;97514.00;;;16.37;65.08
59831;BME280;45711;50.108;13.712;2022-09-13T06:36:30;97515.13;;;16.65;63.60
59831;BME280;45711;50.108;13.712;2022-09-13T06:38:57;97511.50;;;16.61;64.73
59831;BME280;45711;50.108;13.712;2022-09-13T06:41:24;97512.00;;;16.63;65.23
59831;BME280;45711;50.108;13.712;2022-09-13T06:43:52;97505.03;;;16.83;64.45
59831;BME280;45711;50.108;13.712;2022-09-13T06:46:19;97504.47;;;16.98;64.55
59831;BME280;45711;50.108;13.712;2022-09-13T06:48:45;97504.56;;;17.02;64.43
59831;BME280;45711;50.108;13.712;2022-09-13T06:51:12;97511.88;;;17.01;65.00
59831;BME280;45711;50.108;13.712;2022-09-13T06:53:39;97510.09;;;16.84;65.35
59831;BME280;45711;50.108;13.712;2022-09-13T06:56:09;97517.72;;;17.12;64.84
59831;BME280;45711;50.108;13.712;2022-09-13T06:58:36;97510.53;;;16.95;65.84
59831;BME280;45711;50.108;13.712;2022-09-13T07:01:07;97513.06;;;18.00;63.04
59831;BME280;45711;50.108;13.712;2022-09-13T07:03:37;97513.88;;;18.74;60.80
59831;BME280;45711;50.108;13.712;2022-09-13T07:06:14;97507.41;;;19.31;58.69
59831;BME280;45711;50.108;13.712;2022-09-13T07:08:42;97512.72;;;19.27;58.34
59831;BME280;45711;50.108;13.712;2022-09-13T07:11:10;97498.09;;;19.16;58.56
59831;BME280;45711;50.108;13.712;2022-09-13T07:13:36;97501.75;;;19.64;57.91
59831;BME280;45711;50.108;13.712;2022-09-13T07:16:04;97493.38;;;20.01;55.88
59831;BME280;45711;50.108;13.712;2022-09-13T07:18:30;97488.19;;;19.80;57.15
59831;BME280;45711;50.108;13.712;2022-09-13T07:20:58;97497.13;;;20.95;54.20
59831;BME280;45711;50.108;13.712;2022-09-13T07:23:25;97494.25;;;22.11;51.05
59831;BME280;45711;50.108;13.712;2022-09-13T07:25:53;97478.72;;;21.89;50.06
59831;BME280;45711;50.108;13.712;2022-09-13T07:28:20;97493.00;;;22.28;49.68
59831;BME280;45711;50.108;13.712;2022-09-13T07:30:46;97495.94;;;23.22;48.77
59831;BME280;45711;50.108;13.712;2022-09-13T07:33:11;97487.66;;;23.82;47.39
59831;BME280;45711;50.108;13.712;2022-09-13T07:35:37;97495.59;;;23.61;47.40
59831;BME280;45711;50.108;13.712;2022-09-13T07:38:02;97496.75;;;23.97;47.45
59831;BME280;45711;50.108;13.712;2022-09-13T07:40:28;97486.69;;;22.47;47.90
59831;BME280;45711;50.108;13.712;2022-09-13T07:42:53;97484.91;;;22.08;51.59
59831;BME280;45711;50.108;13.712;2022-09-13T07:45:20;97480.03;;;21.98;51.42
59831;BME280;45711;50.108;13.712;2022-09-13T07:47:48;97484.59;;;21.91;52.10
59831;BME280;45711;50.108;13.712;2022-09-13T07:50:17;97487.13;;;23.05;49.00
59831;BME280;45711;50.108;13.712;2022-09-13T07:52:43;97491.56;;;21.88;52.16
59831;BME280;45711;50.108;13.712;2022-09-13T07:55:09;97488.97;;;23.28;49.06
59831;BME280;45711;50.108;13.712;2022-09-13T07:57:34;97485.16;;;22.49;50.77
59831;BME280;45711;50.108;13.712;2022-09-13T08:00:00;97497.59;;;20.81;53.14
59831;BME280;45711;50.108;13.712;2022-09-13T08:02:27;97487.91;;;19.85;56.31
59831;BME280;45711;50.108;13.712;2022-09-13T08:04:53;97490.47;;;19.78;56.26
59831;BME280;45711;50.108;13.712;2022-09-13T08:07:18;97490.88;;;19.64;56.64
59831;BME280;45711;50.108;13.712;2022-09-13T08:09:44;97488.19;;;20.27;54.75
59831;BME280;45711;50.108;13.712;2022-09-13T08:12:09;97497.72;;;20.37;55.86
59831;BME280;45711;50.108;13.712;2022-09-13T08:14:35;97494.25;;;20.52;55.91
59831;BME280;45711;50.108;13.712;2022-09-13T08:17:01;97488.22;;;20.12;56.98
59831;BME280;45711;50.108;13.712;2022-09-13T08:19:27;97497.66;;;19.58;57.23
59831;BME280;45711;50.108;13.712;2022-09-13T08:21:53;97488.19;;;20.27;56.83
59831;BME280;45711;50.108;13.712;2022-09-13T08:24:20;97491.56;;;19.61;57.80
59831;BME280;45711;50.108;13.712;2022-09-13T08:26:46;97493.63;;;19.24;59.42
59831;BME280;45711;50.108;13.712;2022-09-13T08:29:13;97496.03;;;19.41;59.28
59831;BME280;45711;50.108;13.712;2022-09-13T08:31:39;97500.78;;;19.16;59.94
59831;BME280;45711;50.108;13.712;2022-09-13T08:34:07;97500.91;;;19.92;57.98
59831;BME280;45711;50.108;13.712;2022-09-13T08:36:35;97503.28;;;20.25;57.59
59831;BME280;45711;50.108;13.712;2022-09-13T08:39:01;97506.88;;;21.96;52.96
59831;BME280;45711;50.108;13.712;2022-09-13T08:41:39;97505.13;;;22.83;50.58
59831;BME280;45711;50.108;13.712;2022-09-13T08:44:17;97503.34;;;21.73;51.26
59831;BME280;45711;50.108;13.712;2022-09-13T08:46:44;97500.16;;;21.90;53.24
59831;BME280;45711;50.108;13.712;2022-09-13T08:49:14;97493.53;;;21.10;53.33
59831;BME280;45711;50.108;13.712;2022-09-13T08:51:47;97482.38;;;21.54;52.79
59831;BME280;45711;50.108;13.712;2022-09-13T08:54:14;97483.06;;;22.66;51.73
59831;BME280;45711;50.108;13.712;2022-09-13T08:56:45;97484.66;;;22.40;50.13
59831;BME280;45711;50.108;13.712;2022-09-13T08:59:31;97488.19;;;21.52;53.90
59831;BME280;45711;50.108;13.712;2022-09-13T09:02:09;97486.28;;;21.76;53.29
59831;BME280;45711;50.108;13.712;2022-09-13T09:04:41;97489.28;;;22.13;52.06
59831;BME280;45711;50.108;13.712;2022-09-13T09:07:15;97483.91;;;22.43;51.06
59831;BME280;45711;50.108;13.712;2022-09-13T09:09:45;97481.31;;;22.04;50.78
59831;BME280;45711;50.108;13.712;2022-09-13T09:12:19;97471.41;;;20.73;54.72
59831;BME280;45711;50.108;13.712;2022-09-13T09:14:56;97475.56;;;20.35;55.75
59831;BME280;45711;50.108;13.712;2022-09-13T09:17:27;97463.16;;;19.87;57.83
59831;BME280;45711;50.108;13.712;2022-09-13T09:20:01;97462.94;;;20.11;57.30
59831;BME280;45711;50.108;13.712;2022-09-13T09:22:31;97463.66;;;20.24;56.37
59831;BME280;45711;50.108;13.712;2022-09-13T09:24:57;97466.47;;;19.96;57.65
59831;BME280;45711;50.108;13.712;2022-09-13T09:27:23;97469.03;;;20.20;57.07
59831;BME280;45711;50.108;13.712;2022-09-13T09:29:50;97467.53;;;19.91;57.98
59831;BME280;45711;50.108;13.712;2022-09-13T09:32:35;97457.47;;;19.48;58.81
59831;BME280;45711;50.108;13.712;2022-09-13T09:35:12;97457.63;;;19.39;59.17
59831;BME280;45711;50.108;13.712;2022-09-13T09:37:45;97454.03;;;19.35;60.06
59831;BME280;45711;50.108;13.712;2022-09-13T09:40:17;97454.13;;;19.39;59.19
59831;BME280;45711;50.108;13.712;2022-09-13T09:42:44;97451.69;;;19.49;59.88
59831;BME280;45711;50.108;13.712;2022-09-13T09:45:23;97450.25;;;19.83;58.77
59831;BME280;45711;50.108;13.712;2022-09-13T09:47:50;97441.72;;;19.53;59.67
59831;BME280;45711;50.108;13.712;2022-09-13T09:50:19;97435.28;;;19.74;59.08
59831;BME280;45711;50.108;13.712;2022-09-13T09:52:52;97435.97;;;19.27;59.87
59831;BME280;45711;50.108;13.712;2022-09-13T09:55:26;97427.06;;;19.26;60.07
59831;BME280;45711;50.108;13.712;2022-09-13T09:57:55;97429.44;;;19.44;60.39
59831;BME280;45711;50.108;13.712;2022-09-13T10:00:23;97421.31;;;19.44;60.44
59831;BME280;45711;50.108;13.712;2022-09-13T10:02:52;97416.88;;;19.67;60.37
59831;BME280;45711;50.108;13.712;2022-09-13T10:05:19;97404.72;;;19.61;60.56
59831;BME280;45711;50.108;13.712;2022-09-13T10:07:59;97396.19;;;19.47;60.51
59831;BME280;45711;50.108;13.712;2022-09-13T10:10:30;97392.72;;;19.18;66.40
59831;BME280;45711;50.108;13.712;2022-09-13T10:13:01;97388.72;;;19.12;65.74
59831;BME280;45711;50.108;13.712;2022-09-13T10:15:29;97384.69;;;19.22;69.43
59831;BME280;45711;50.108;13.712;2022-09-13T10:18:04;97391.69;;;19.23;69.29
59831;BME280;45711;50.108;13.712;2022-09-13T10:20:32;97384.31;;;19.83;62.84
59831;BME280;45711;50.108;13.712;2022-09-13T10:23:14;97395.75;;;20.98;65.00
59831;BME280;45711;50.108;13.712;2022-09-13T10:25:43;97377.72;;;21.09;64.05
59831;BME280;45711;50.108;13.712;2022-09-13T10:28:13;97395.63;;;20.36;63.88
59831;BME280;45711;50.108;13.712;2022-09-13T10:30:42;97401.03;;;20.01;66.14
59831;BME280;45711;50.108;13.712;2022-09-13T10:33:23;97395.72;;;19.73;63.17
59831;BME280;45711;50.108;13.712;2022-09-13T10:35:53;97402.28;;;19.88;62.92
59831;BME280;45711;50.108;13.712;2022-09-13T10:38:25;97408.25;;;19.77;60.87
59831;BME280;45711;50.108;13.712;2022-09-13T10:40:51;97399.22;;;19.73;64.33
59831;BME280;45711;50.108;13.712;2022-09-13T10:43:17;97402.88;;;19.65;61.30
59831;BME280;45711;50.108;13.712;2022-09-13T10:45:47;97394.81;;;20.00;63.11
59831;BME280;45711;50.108;13.712;2022-09-13T10:48:15;97402.97;;;20.36;61.82
59831;BME280;45711;50.108;13.712;2022-09-13T10:51:00;97394.22;;;20.42;61.96
59831;BME280;45711;50.108;13.712;2022-09-13T10:53:32;97394.56;;;20.41;60.74
59831;BME280;45711;50.108;13.712;2022-09-13T10:55:58;97390.19;;;20.71;62.95
59831;BME280;45711;50.108;13.712;2022-09-13T10:58:24;97386.41;;;20.05;60.64
59831;BME280;45711;50.108;13.712;2022-09-13T11:01:23;97387.53;;;20.04;61.88
59831;BME280;45711;50.108;13.712;2022-09-13T11:07:00;97383.19;;;19.68;61.52
59831;BME280;45711;50.108;13.712;2022-09-13T11:09:32;97387.09;;;19.55;62.56
59831;BME280;45711;50.108;13.712;2022-09-13T11:12:07;97382.84;;;19.70;61.88
59831;BME280;45711;50.108;13.712;2022-09-13T11:14:48;97382.09;;;19.57;61.72
59831;BME280;45711;50.108;13.712;2022-09-13T11:17:28;97373.38;;;19.79;60.56
59831;BME280;45711;50.108;13.712;2022-09-13T11:20:17;97376.72;;;19.73;61.08
59831;BME280;45711;50.108;13.712;2022-09-13T11:23:07;97372.41;;;19.88;62.14
59831;BME280;45711;50.108;13.712;2022-09-13T11:25:50;97364.06;;;19.80;60.70
59831;BME280;45711;50.108;13.712;2022-09-13T11:28:27;97349.91;;;19.71;61.98
59831;BME280;45711;50.108;13.712;2022-09-13T11:31:05;97352.38;;;19.61;61.44
59831;BME280;45711;50.108;13.712;2022-09-13T11:33:44;97351.31;;;19.65;61.05
59831;BME280;45711;50.108;13.712;2022-09-13T11:39:12;97353.50;;;19.59;61.43
59831;BME280;45711;50.108;13.712;2022-09-13T11:41:50;97359.00;;;19.63;61.24
59831;BME280;45711;50.108;13.712;2022-09-13T11:47:14;97345.81;;;19.62;61.88
59831;BME280;45711;50.108;13.712;2022-09-13T11:49:57;97349.75;;;19.64;61.18
59831;BME280;45711;50.108;13.712;2022-09-13T11:52:37;97351.09;;;19.58;61.57
59831;BME280;45711;50.108;13.712;2022-09-13T11:55:13;97341.97;;;19.98;61.48
59831;BME280;45711;50.108;13.712;2022-09-13T11:57:45;97339.06;;;20.06;60.19
59831;BME280;45711;50.108;13.712;2022-09-13T12:00:19;97332.13;;;19.90;60.50
59831;BME280;45711;50.108;13.712;2022-09-13T12:02:50;97325.06;;;20.04;61.11
59831;BME280;45711;50.108;13.712;2022-09-13T12:05:21;97318.41;;;20.02;60.30
59831;BME280;45711;50.108;13.712;2022-09-13T12:07:50;97320.50;;;19.73;61.25
59831;BME280;45711;50.108;13.712;2022-09-13T12:10:21;97316.47;;;19.67;61.02
59831;BME280;45711;50.108;13.712;2022-09-13T12:12:51;97313.03;;;19.86;61.70
59831;BME280;45711;50.108;13.712;2022-09-13T12:15:27;97308.47;;;19.90;61.01
59831;BME280;45711;50.108;13.712;2022-09-13T12:17:57;97308.66;;;19.81;60.74
59831;BME280;45711;50.108;13.712;2022-09-13T12:20:34;97314.00;;;19.62;61.85
59831;BME280;45711;50.108;13.712;2022-09-13T12:23:04;97312.06;;;19.78;61.08
59831;BME280;45711;50.108;13.712;2022-09-13T12:25:37;97318.00;;;20.00;60.72
59831;BME280;45711;50.108;13.712;2022-09-13T12:28:10;97317.31;;;19.87;60.63
59831;BME280;45711;50.108;13.712;2022-09-13T12:30:44;97317.53;;;19.98;61.74
59831;BME280;45711;50.108;13.712;2022-09-13T12:33:13;97307.06;;;19.80;60.89
59831;BME280;45711;50.108;13.712;2022-09-13T12:35:47;97311.72;;;19.80;61.14
59831;BME280;45711;50.108;13.712;2022-09-13T12:38:26;97306.94;;;20.28;60.77
59831;BME280;45711;50.108;13.712;2022-09-13T12:41:25;97313.38;;;20.55;60.89
59831;BME280;45711;50.108;13.712;2022-09-13T12:47:32;97299.84;;;20.04;61.26
59831;BME280;45711;50.108;13.712;2022-09-13T12:52:57;97285.25;;;19.93;61.14
59831;BME280;45711;50.108;13.712;2022-09-13T12:55:46;97285.50;;;20.42;59.62
59831;BME280;45711;50.108;13.712;2022-09-13T12:58:35;97289.94;;;20.12;60.45
59831;BME280;45711;50.108;13.712;2022-09-13T13:04:22;97280.38;;;21.22;58.47
59831;BME280;45711;50.108;13.712;2022-09-13T13:06:52;97276.06;;;20.75;61.28
59831;BME280;45711;50.108;13.712;2022-09-13T13:09:29;97271.03;;;21.42;57.49
59831;BME280;45711;50.108;13.712;2022-09-13T13:11:56;97276.34;;;20.31;60.14
59831;BME280;45711;50.108;13.712;2022-09-13T13:14:45;97270.84;;;20.27;60.62
59831;BME280;45711;50.108;13.712;2022-09-13T13:17:43;97275.38;;;21.47;58.71
59831;BME280;45711;50.108;13.712;2022-09-13T13:20:45;97268.78;;;20.21;60.47
59831;BME280;45711;50.108;13.712;2022-09-13T13:23:34;97262.78;;;21.16;59.36
59831;BME280;45711;50.108;13.712;2022-09-13T13:26:09;97260.56;;;21.71;58.27
59831;BME280;45711;50.108;13.712;2022-09-13T13:31:44;97239.16;;;21.43;57.72
59831;BME280;45711;50.108;13.712;2022-09-13T13:34:40;97242.59;;;20.32;60.31
59831;BME280;45711;50.108;13.712;2022-09-13T13:37:37;97243.81;;;20.96;60.01